Extreme weather reports worldwide

Low visibility

Station
 
Location
 
Name
 
Wind
Knots
Gust
Knots
Vis
SM
Temp/Dew
C
Baro
inHg
METAR
 
KMWN 32 0 -3/-3 KMWN 150156Z 30032KT 0SM FZFG BLSN VV000 M03/M03 RMK VRY LGT ICG
LIVR 10 0.06 6/4 30.18 LIVR 150155Z 13010KT 0100 FG VV/// 06/04 Q1022 RMK MON INVIS VIS MIN 0100
RAS OIGG Rasht, IR Sardar-e-Jangal Airport 0 0.19 11/11 30.03 OIGG 150200Z 00000KT 0300 R27/0400N FG VV002 11/11 Q1017
ARH ULAA Archangelsk, RU Talagi Airport 6 0.25 3/3 29.29 ULAA 150200Z 12003MPS 0400 0300S R08/0300N FG VV003 03/03 Q0992 R08/290060 NOSIG RMK QBB090 QFE743/0991
SGT KSGT Stuttgart, US Stuttgart Municipal Airport / Carl Humphrey Field 6 0.25 22/16 29.94 KSGT 150156Z AUTO 18006KT M1/4SM HZ CLR 23/17 A2994 RMK AO2 SLP138 T02280167 PWINO RVRNO $

Station
 
Location
 
Name
 
Wind
Knots
Gust
Knots
Vis
SM
Temp/Dew
C
Baro
inHg
METAR
 
BLU KBLU Emigrant Gap, US Blue Canyon Nyack Airport 0 0.25 0/0 30.07 KBLU 150152Z AUTO 00000KT 1/4SM SN FG VV004 01/00 A3007 RMK AO2 SLP196 P0004 T00060000
BJF ENBS Båtsfjord, NO Båtsfjord Airport 4 0.25 0/0 29.44 ENBS 150150Z AUTO 02004KT 0400 SN VV005 M00/M00 Q0997
RKSP 9 19 0.25 9/9 29.78 RKSP 150120Z 26009G019KT 0400 FG VV001 09/09 A2978 RMK CIG001
YCY CYCY Clyde River, CA Clyde River Airport 3 0.38 -14/-15 30.21 CYCY 150212Z AUTO 02003KT 280V050 3/8SM SN VV003 M14/M15 A3021 RMK SLP235
GUW UATG Atyrau, KZ Atyrau Airport 6 0.43 14/13 29.94 UATG 150200Z 16003MPS 0700 R14/0700N FG VV001 14/13 Q1014 TEMPO 0300 RMK QBB050 QFE762/1016
DEL VIDP New Delhi, IN Indira Gandhi International Airport 0 0.5 24/20 29.91 VIDP 150200Z 00000KT 0800 R28/0900 R27/0800 R29R/2000 R29L/2000 MIFG SCT035 BKN100 24/20 Q1013 TEMPO 0600 MIFG
PVS UHMD Chukotka, RU Provideniya Bay Airport 16 0.62 -1/-1 29.88 UHMD 150200Z 20008MPS 1000 SN BR OVC005 M01/M01 Q1012 RMK QBB150 MT OBSC QFE758/1011
JRF PHJR Kapolei, US Kalaeloa Airport 8 0.75 / 29.91 PHJR 150218Z 31008KT 280V350 3/4SM +RA FEW005 OVC013 A2991
KVGC Hamilton, US Hamilton Municipal Airport 0 0.75 4/ 29.72 KVGC 150215Z AUTO 00000KT 3/4SM BR VV005 04/ A2972 RMK AO2
TKF KTRK Truckee, US Truckee Tahoe Airport 0 0.75 0/0 30.04 KTRK 150215Z AUTO 00000KT 3/4SM -SN OVC005 00/00 A3004 RMK AO2
AAE DABB Annaba, DZ Rabah Bitat Airport 3 0.75 13/13 30.03 DABB 150200Z 27003KT 1200 BR FEW016 SCT033 13/13 Q1017
LUR PALU Cape Lisburne, US Cape Lisburne LRRS Airport 24 0.75 -6/-9 29.92 PALU 150155Z AUTO 18024KT 090V210 3/4SM -SN BR OVC020 M06/M09 A2992
DLC ZYTL Dalian, CN Zhoushuizi Airport 16 0.87 12/12 29.73 ZYTL 150200Z 28008MPS 1400 R28/1000U BR SCT002 BKN004 12/12 Q1007 BECMG TL0300 3000 SCT008
MAA VOMM Chennai, IN Chennai International Airport 4 0.93 29/26 29.88 VOMM 150200Z 30004KT 1500 R07/2000 R25/2000 BR FEW020 SCT100 29/26 Q1012 NOSIG
VEKI 3 0.93 27/17 29.82 VEKI 150200Z VRB03KT 1500 HZ NSC 27/17 Q1010 NOSIG
IXA VEAT Agartala, IN Agartala Airport 4 0.93 28/25 29.85 VEAT 150200Z 22004KT 1500 BR FEW100 28/25 Q1011 NOSIG
YCB CYCB Cambridge Bay, CA Cambridge Bay Airport 13 1 -9/-10 29.95 CYCB 150222Z 02013KT 1SM -SN BR OVC004 M09/M10 A2995 RMK SN1SC7 CIG VRB 3-5 VIS VRB 3/4-1 1/4 SLP149
WTK PAWN Noatak, US Noatak Airport 12 1 -8/-10 30.08 PAWN 150219Z AUTO 16012KT 1SM -SN BR FEW014 OVC027 M08/M10 A3008 RMK AO2 P0000 FZRANO
YIV CYIV Island Lake, CA Island Lake Airport 4 1 2/2 29.89 CYIV 150219Z AUTO 34004KT 1SM BR OVC003 02/02 A2989 RMK SLP135
KL35 6 15 1 0/-1 30.02 KL35 150215Z AUTO 25006G15KT 224V294 1SM -SN OVC008 00/M01 A3002 RMK AO2
OTZ PAOT Kotzebue, US Ralph Wien Memorial Airport 21 1 -10/-10 30.08 PAOT 150208Z 13021KT 1SM R09/P6000FT -SN BR OVC029 M10/M11 A3008 RMK AO2 PK WND 13027/0159 P0000 T11001106
TOF UNTT Tomsk, RU Bogashevo Airport 8 1.06 7/7 29.62 UNTT 150200Z 24004MPS 1700 1400S R21/2000U -DZ BR OVC001 07/07 Q1003 R21/290150 NOSIG RMK QBB050 QFE737
FSP LFVP Saint-Pierre, PM St Pierre Airport 5 1.06 3/3 29.79 LFVP 150200Z AUTO 23005KT 1700 BR OVC038 03/03 Q1009
TNE RJFG Tanegashima, JP New Tanegashima Airport 18 1.24 18/17 30.00 RJFG 150211Z 11018KT 2000 -SHRA BR FEW001 SCT003 BKN010 18/17 Q1016 RMK 2ST001 4ST003 5CU010 A3002
KQFW 1 1.24 14/13 29.76 KQFW 150210Z AUTO 04001KT 2000 +SHRA FEW015 OVC037 14/13 A2976 RMK A02 TSNO
KHG ZWSH Kashgar, CN Kashgar Airport 10 1.24 17/-9 30.00 ZWSH 150200Z 04005MPS 2000 DU SCT040 17/M09 Q1016 NOSIG
HGN VTCH TH Mae Hong Son Airport 0 1.24 31/22 29.91 VTCH 150200Z 00000KT 2000 HZ NSC 31/22 Q1013 NOSIG
RJA VORY Rajahmundry, IN Rajahmundry Airport 0 1.24 29/24 29.88 VORY 150200Z 00000KT 2000 HZ NSC 29/24 Q1012 BECMG 3000 HZ
PKZ VLPS Pakse, LA Pakse International Airport 10 1.24 32/22 29.88 VLPS 150200Z 14010KT 2000 HZ SCT023 32/22 Q1012 NOSIG
CGP VGEG Chittagong, BD Shah Amanat International Airport 3 1.24 30/25 29.85 VGEG 150200Z 06003KT 2000 HZ FEW018 30/25 Q1011 BECMG S/VIS 2400M
VERP 2 1.24 28/21 29.91 VERP 150200Z 20002KT 2000 HZ NSC 28/21 Q1013 BECMG 3000 HZ
PAT VEPT Patna, IN Lok Nayak Jayaprakash Airport 2 1.24 32/23 29.82 VEPT 150200Z 28002KT 2000 HZ NSC 32/23 Q1010 NOSIG
GAU VEGT Guwahati, IN Lokpriya Gopinath Bordoloi International Airport 3 1.24 29/22 29.85 VEGT 150200Z 35003KT 2000 HZ FEW020 29/22 Q1011 NOSIG
SKD UTSS Samarkand, UZ Samarkand Airport 2 1.24 13/12 29.91 UTSS 150200Z VRB02KT 2000 -SHRA BR FEW014 OVC050CB 13/12 Q1013 R27/29//50 NOSIG
LDB SBLO Londrina, BR Governador José Richa Airport 6 1.24 23/23 29.97 SBLO 150200Z 10006KT 2000 -DZ BKN002 OVC010 23/23 Q1015
JOI SBJV Joinville, BR Lauro Carneiro de Loyola Airport 0 1.24 23/23 29.97 SBJV 150200Z 00000KT 2000 BR BKN003 OVC020 23/23 Q1015
SKZ OPSK Mirpur Khas, PK Sukkur Airport 0 1.24 21/18 29.88 OPSK 150200Z 00000KT 2000 BR FEW040 SCT100 21/18 Q1012 TEMPO 20 00 BR
TIN DAOF Tindouf, DZ Tindouf Airport 4 1.24 21/-1 30.03 DAOF 150200Z 16004KT 2000 DU NSC 21/M01 Q1017
ABL PAFM Ambler, US Ambler Airport 7 1.25 -7/-9 30.23 PAFM 150222Z AUTO 11007KT 1 1/4SM -SN BR OVC013 M07/M09 A3023 RMK AO2 P0000 FZRANO
OIC KOIC Norwich, US Lt Warren Eaton Airport 0 1.25 6/6 29.76 KOIC 150215Z AUTO 00000KT 1 1/4SM BR VV007 07/07 A2976 RMK AO2 VIS 1/2V5 T00660066
BOM VABB Mumbai, IN Chhatrapati Shivaji International Airport 5 1.37 29/25 29.85 VABB 150200Z 04005KT 2200 BR NSC 29/25 Q1011 NOSIG
KQEW 2 1.49 14/14 29.90 KQEW 150220Z AUTO 01002KT 2400 RA OVC022 14/14 A2990 RMK A02 TSNO
KQEJ 1 1.49 15/14 29.90 KQEJ 150220Z AUTO 16001KT 2400 +SHRA OVC041 15/14 A2990 RMK A02 TSNO
KQEI 1 1.49 15/15 29.92 KQEI 150220Z AUTO 15001KT 2400 SHRA BKN046 15/15 A2992 RMK A02 TSNO
RDP VEDG Durgapur, IN Kazi Nazrul Islam Airport 4 1.49 29/22 29.85 VEDG 150200Z 21004KT 2400 HZ FEW020 SCT100 29/22 Q1011 NOSIG